Time;durP1;ratioP1;P1;durP2;ratioP2;P2;SDS_P1;SDS_P2;PMS_P1;PMS_P2;Temp;Humidity;BMP_temperature;BMP_pressure;BME280_temperature;BME280_humidity;BME280_pressure;Samples;Min_cycle;Max_cycle;Signal;HPM_P1;HPM_P2
2023/09/02 00:01:02;;;;;;;7.43;3.40;;;;;;;19.00;72.17;101557.31;5097215;28;20048;-59
2023/09/02 00:03:30;;;;;;;4.22;2.75;;;;;;;18.99;72.03;101555.66;5097556;28;20071;-59
2023/09/02 00:05:59;;;;;;;5.18;3.28;;;;;;;18.98;72.27;101554.84;5102515;28;20044;-59
2023/09/02 00:08:28;;;;;;;6.05;2.83;;;;;;;18.99;72.09;101550.22;5101442;28;20054;-59
2023/09/02 00:10:56;;;;;;;5.15;3.22;;;;;;;18.99;72.21;101533.88;5096197;28;20127;-58
2023/09/02 00:13:24;;;;;;;4.88;3.38;;;;;;;18.98;72.14;101543.13;5098597;28;20116;-59
2023/09/02 00:15:51;;;;;;;4.82;2.63;;;;;;;18.96;72.28;101548.84;5098231;28;20044;-59
2023/09/02 00:18:19;;;;;;;4.82;3.13;;;;;;;18.97;72.04;101547.75;5094767;28;20048;-56
2023/09/02 00:20:47;;;;;;;3.83;2.45;;;;;;;18.97;72.17;101553.22;5098442;28;20043;-57
2023/09/02 00:23:16;;;;;;;3.40;2.88;;;;;;;18.96;72.04;101554.28;5101953;28;20052;-57
2023/09/02 00:25:45;;;;;;;3.83;2.55;;;;;;;18.96;71.84;101556.19;5101880;28;20054;-58
2023/09/02 00:28:12;;;;;;;4.78;2.42;;;;;;;18.96;71.92;101556.19;5095790;28;20055;-58
2023/09/02 00:30:40;;;;;;;3.53;2.55;;;;;;;18.95;72.00;101555.38;5103322;28;20044;-58
2023/09/02 00:33:08;;;;;;;3.85;2.40;;;;;;;18.95;71.86;101554.53;5090154;28;20118;-58
2023/09/02 00:35:36;;;;;;;5.97;2.40;;;;;;;18.93;71.82;101546.63;5100714;28;20044;-58
2023/09/02 00:38:04;;;;;;;4.68;2.70;;;;;;;18.92;72.01;101546.91;5103470;28;20079;-58
2023/09/02 00:40:34;;;;;;;4.22;2.72;;;;;;;18.92;71.88;101545.00;5098555;28;20547;-58
2023/09/02 00:43:03;;;;;;;4.03;2.65;;;;;;;18.91;72.00;101554.25;5097306;28;20072;-58
2023/09/02 00:45:31;;;;;;;4.05;2.85;;;;;;;18.83;71.85;101541.94;5089130;28;20376;-57
2023/09/02 00:48:00;;;;;;;4.00;2.78;;;;;;;18.90;72.08;101558.06;5101197;28;20120;-58
2023/09/02 00:50:28;;;;;;;4.90;2.72;;;;;;;18.89;72.13;101556.41;5102827;28;20121;-58
2023/09/02 00:52:56;;;;;;;3.83;2.63;;;;;;;18.89;72.27;101552.88;5100768;28;20143;-58
2023/09/02 00:55:23;;;;;;;3.35;2.63;;;;;;;18.88;72.32;101551.22;5097094;28;20401;-58
2023/09/02 00:57:53;;;;;;;4.68;2.80;;;;;;;18.88;72.22;101551.22;5100492;28;20048;-57
2023/09/02 01:00:21;;;;;;;5.13;2.95;;;;;;;18.86;72.13;101551.47;5098172;28;20044;-58
2023/09/02 01:02:50;;;;;;;3.10;2.40;;;;;;;18.85;72.11;101555.28;5098724;28;20430;-58
2023/09/02 01:05:21;;;;;;;4.60;2.72;;;;;;;18.85;72.18;101553.38;5100476;28;20072;-58
2023/09/02 01:07:51;;;;;;;3.25;2.40;;;;;;;18.84;72.40;101556.38;5103353;28;20040;-59
2023/09/02 01:10:19;;;;;;;4.28;2.40;;;;;;;18.83;72.34;101560.16;5100371;28;20048;-60
2023/09/02 01:12:47;;;;;;;3.45;2.75;;;;;;;18.82;72.39;101562.06;5096510;28;20048;-59
2023/09/02 01:15:16;;;;;;;3.30;2.60;;;;;;;18.82;72.05;101564.78;5098120;28;20515;-59
2023/09/02 01:17:44;;;;;;;3.50;2.28;;;;;;;18.81;72.33;101562.31;5101314;28;20256;-60
2023/09/02 01:20:14;;;;;;;3.72;2.53;;;;;;;18.81;72.46;101568.59;5099676;28;20044;-59
2023/09/02 01:23:07;;;;;;;4.03;2.50;;;;;;;18.81;72.40;101568.59;5097207;28;20185;-58
2023/09/02 01:26:08;;;;;;;2.70;2.20;;;;;;;18.79;72.42;101575.38;5098042;28;20048;-59
2023/09/02 01:28:42;;;;;;;6.70;2.55;;;;;;;18.78;72.39;101574.56;5100299;28;20467;-58
2023/09/02 01:31:14;;;;;;;3.00;1.88;;;;;;;18.75;72.27;101577.81;5097398;28;20064;-60
2023/09/02 01:33:43;;;;;;;3.72;2.28;;;;;;;18.77;72.43;101585.72;5102950;28;20123;-59
2023/09/02 01:36:13;;;;;;;3.33;2.10;;;;;;;18.76;72.13;101584.91;5097807;28;20055;-59
2023/09/02 01:38:43;;;;;;;3.47;2.13;;;;;;;18.77;72.15;101580.28;5096762;28;20677;-59
2023/09/02 01:41:13;;;;;;;5.10;2.35;;;;;;;18.76;71.90;101579.44;5098109;28;20036;-59
2023/09/02 01:43:45;;;;;;;5.07;1.92;;;;;;;18.77;71.74;101580.28;5093912;28;20052;-60
2023/09/02 01:46:13;;;;;;;3.88;2.10;;;;;;;18.76;71.83;101576.72;5094712;28;20132;-58
2023/09/02 01:48:42;;;;;;;4.95;1.90;;;;;;;18.76;71.85;101578.63;5097814;28;20206;-59
2023/09/02 01:51:10;;;;;;;2.83;2.05;;;;;;;18.76;71.96;101584.91;5096810;28;20059;-59
2023/09/02 01:53:38;;;;;;;2.35;1.95;;;;;;;18.76;71.97;101582.16;5098252;28;20048;-59
2023/09/02 01:56:06;;;;;;;3.60;2.22;;;;;;;18.76;71.91;101589.53;5093767;28;20078;-59
2023/09/02 01:58:34;;;;;;;5.03;2.25;;;;;;;18.75;71.95;101582.44;5095612;28;20493;-59
2023/09/02 02:01:03;;;;;;;3.47;2.10;;;;;;;18.73;72.17;101579.97;5089940;28;20037;-60
2023/09/02 02:03:37;;;;;;;6.13;2.20;;;;;;;18.70;71.93;101579.66;5096055;28;20048;-59
2023/09/02 02:06:08;;;;;;;4.20;2.20;;;;;;;18.74;72.17;101589.78;5103618;28;20510;-59
2023/09/02 02:08:44;;;;;;;8.35;2.50;;;;;;;18.73;72.18;101593.56;5090424;28;20109;-59
2023/09/02 02:11:14;;;;;;;5.47;2.58;;;;;;;18.73;72.43;101593.56;5095778;28;20055;-59
2023/09/02 02:13:42;;;;;;;3.15;2.00;;;;;;;18.61;72.40;101573.84;5097962;28;20071;-59
2023/09/02 02:16:12;;;;;;;3.78;2.20;;;;;;;18.70;72.31;101587.81;5092125;28;20415;-59
2023/09/02 02:18:40;;;;;;;3.30;2.03;;;;;;;18.71;72.30;101592.19;5092802;28;20148;-58
2023/09/02 02:21:07;;;;;;;7.80;2.30;;;;;;;18.70;72.27;101605.00;5094969;28;20036;-58
2023/09/02 02:23:35;;;;;;;5.50;2.10;;;;;;;18.70;72.01;101593.28;5095698;28;20051;-59
2023/09/02 02:26:05;;;;;;;2.35;1.77;;;;;;;18.70;72.14;101596.00;5096420;28;20074;-59
2023/09/02 02:28:33;;;;;;;2.47;1.92;;;;;;;18.69;72.19;101606.06;5093346;28;20105;-59
2023/09/02 02:31:01;;;;;;;3.50;2.10;;;;;;;18.69;72.18;101605.25;5096280;28;20046;-58
2023/09/02 02:33:30;;;;;;;2.40;1.92;;;;;;;18.66;72.09;101603.03;5098141;28;20044;-58
2023/09/02 02:35:58;;;;;;;5.30;2.17;;;;;;;18.68;72.03;101612.59;5097003;28;20159;-59
2023/09/02 02:38:25;;;;;;;3.95;2.30;;;;;;;18.69;72.10;101613.41;5094879;28;20056;-59
2023/09/02 02:40:53;;;;;;;6.50;2.10;;;;;;;18.68;72.27;101611.78;5097552;28;20040;-59
2023/09/02 02:43:25;;;;;;;4.38;2.28;;;;;;;18.66;72.30;101612.03;5097531;28;20366;-58
2023/09/02 02:45:53;;;;;;;3.78;2.13;;;;;;;18.61;72.32;101602.97;5095664;28;20051;-58
2023/09/02 02:48:25;;;;;;;2.38;1.80;;;;;;;18.65;72.13;101610.38;5097702;28;20275;-58
2023/09/02 02:50:54;;;;;;;9.35;3.15;;;;;;;18.64;72.18;101614.19;5095323;28;20139;-59
2023/09/02 02:53:22;;;;;;;2.70;1.70;;;;;;;18.63;72.25;101609.00;5091060;28;20044;-58
2023/09/02 02:55:50;;;;;;;2.53;1.90;;;;;;;18.62;72.22;101608.16;5097070;28;20048;-59
2023/09/02 02:58:18;;;;;;;3.50;1.80;;;;;;;18.61;72.22;101617.41;5097421;28;20392;-58
2023/09/02 03:00:47;;;;;;;4.03;2.00;;;;;;;18.62;71.94;101613.63;5090795;28;20062;-59
2023/09/02 03:03:15;;;;;;;2.78;2.08;;;;;;;18.61;72.05;101605.69;5093138;28;20078;-58
2023/09/02 03:05:43;;;;;;;3.78;1.95;;;;;;;18.61;72.10;101611.97;5095131;28;20112;-58
2023/09/02 03:08:12;;;;;;;6.45;2.15;;;;;;;18.59;72.12;101608.66;5092398;28;20040;-58
2023/09/02 03:10:40;;;;;;;2.88;1.88;;;;;;;18.58;72.01;101612.44;5074890;28;20177;-58
2023/09/02 03:13:08;;;;;;;2.78;2.00;;;;;;;18.58;72.10;101611.63;5072794;28;20044;-58
2023/09/02 03:15:36;;;;;;;3.42;1.88;;;;;;;18.58;72.16;101607.00;5069396;28;20060;-59
2023/09/02 03:18:04;;;;;;;3.78;2.25;;;;;;;18.58;72.12;101614.34;5078850;28;20493;-58
2023/09/02 03:20:33;;;;;;;4.80;2.00;;;;;;;18.57;71.89;101616.25;5074030;28;20064;-58
2023/09/02 03:23:04;;;;;;;4.88;1.98;;;;;;;18.56;71.87;101614.59;5074556;28;20094;-58
2023/09/02 03:25:34;;;;;;;5.68;1.58;;;;;;;18.56;72.02;101617.34;5074714;28;20056;-58
2023/09/02 03:28:02;;;;;;;2.75;1.70;;;;;;;18.54;72.04;101612.16;5078053;28;20109;-59
2023/09/02 03:30:30;;;;;;;4.05;2.08;;;;;;;18.54;72.06;101611.31;5076751;28;20078;-58
2023/09/02 03:32:58;;;;;;;2.45;1.90;;;;;;;18.52;71.89;101611.56;5079707;28;20056;-58
2023/09/02 03:35:26;;;;;;;2.25;1.70;;;;;;;18.52;71.97;101613.47;5075889;28;20044;-57
2023/09/02 03:37:53;;;;;;;2.80;1.80;;;;;;;18.52;72.21;101618.91;5073740;28;20437;-58
2023/09/02 03:40:21;;;;;;;3.67;1.80;;;;;;;18.51;72.11;101614.56;5071885;28;20044;-57
2023/09/02 03:42:50;;;;;;;3.53;1.67;;;;;;;18.50;71.95;101618.34;5075814;28;20052;-58
2023/09/02 03:45:18;;;;;;;3.15;1.70;;;;;;;18.46;71.85;101620.75;5075355;28;20048;-58
2023/09/02 03:47:46;;;;;;;2.38;1.65;;;;;;;18.50;72.06;101629.25;5077524;28;20130;-58
2023/09/02 03:50:13;;;;;;;2.42;1.90;;;;;;;18.50;72.01;101635.50;5075481;28;20536;-58
2023/09/02 03:52:41;;;;;;;4.63;2.00;;;;;;;18.49;72.20;101636.59;5077929;28;20044;-58
2023/09/02 03:55:09;;;;;;;2.03;1.60;;;;;;;18.49;71.95;101636.59;5074192;28;20057;-58
2023/09/02 03:57:36;;;;;;;3.15;1.67;;;;;;;18.49;71.84;101630.31;5075732;28;20048;-58
2023/09/02 04:00:08;;;;;;;4.32;1.70;;;;;;;18.47;71.77;101641.47;5075162;28;20049;-58
2023/09/02 04:02:35;;;;;;;3.53;1.80;;;;;;;18.47;71.76;101629.75;5072611;28;20273;-58
2023/09/02 04:05:04;;;;;;;2.75;1.73;;;;;;;18.49;71.75;101633.03;5074868;28;20044;-58
2023/09/02 04:07:32;;;;;;;3.10;1.77;;;;;;;18.48;71.49;101634.13;5078981;28;20071;-58
2023/09/02 04:09:59;;;;;;;3.15;2.20;;;;;;;18.47;71.68;101630.56;5088256;28;20102;-59
2023/09/02 04:12:27;;;;;;;6.88;2.22;;;;;;;18.46;71.60;101625.38;5095372;28;20070;-59
2023/09/02 04:14:55;;;;;;;3.40;1.90;;;;;;;18.47;71.49;101633.31;5097892;28;20443;-58
2023/09/02 04:17:24;;;;;;;2.95;1.63;;;;;;;18.45;71.59;101630.00;5099875;28;20047;-58
2023/09/02 04:19:54;;;;;;;3.70;1.92;;;;;;;18.44;71.56;101633.81;5095016;28;20059;-58
2023/09/02 04:22:22;;;;;;;4.18;1.75;;;;;;;18.43;71.46;101632.16;5095493;28;20043;-59
2023/09/02 04:24:50;;;;;;;2.70;1.80;;;;;;;18.43;71.55;101634.88;5100926;28;20060;-58
2023/09/02 04:27:19;;;;;;;3.63;2.03;;;;;;;18.43;71.84;101639.50;5098109;28;20048;-58
2023/09/02 04:29:46;;;;;;;3.03;1.92;;;;;;;18.42;71.79;101632.41;5094499;28;20048;-59
2023/09/02 04:32:14;;;;;;;1.88;1.60;;;;;;;18.42;71.51;101630.53;5090735;28;20055;-59
2023/09/02 04:34:46;;;;;;;2.58;1.70;;;;;;;18.42;71.76;101637.88;5097632;28;20052;-59
2023/09/02 04:37:16;;;;;;;1.65;1.50;;;;;;;18.39;71.71;101636.47;5101592;28;20380;-59
2023/09/02 04:39:44;;;;;;;3.00;1.70;;;;;;;18.38;71.91;101642.16;5097201;28;20051;-60
2023/09/02 04:42:11;;;;;;;2.50;1.98;;;;;;;18.39;71.71;101646.53;5096845;28;20048;-58
2023/09/02 04:44:39;;;;;;;6.22;1.90;;;;;;;18.39;71.87;101646.53;5095078;28;20413;-59
2023/09/02 04:47:10;;;;;;;4.18;1.80;;;;;;;18.37;71.72;101635.91;5097949;28;20145;-59
2023/09/02 04:49:37;;;;;;;3.28;1.77;;;;;;;18.37;71.84;101644.06;5097084;28;20045;-59
2023/09/02 04:52:07;;;;;;;3.28;1.58;;;;;;;18.37;71.95;101643.25;5100419;28;20089;-59
2023/09/02 04:54:34;;;;;;;3.30;2.15;;;;;;;18.36;71.90;101647.88;5095760;28;20188;-60
2023/09/02 04:57:02;;;;;;;2.85;1.70;;;;;;;18.35;71.80;101648.94;5098118;28;20040;-60
2023/09/02 04:59:30;;;;;;;4.65;2.13;;;;;;;18.34;71.94;101641.84;5096192;28;20048;-58
2023/09/02 05:01:58;;;;;;;3.55;1.80;;;;;;;18.34;72.07;101651.91;4741445;28;9999755;-58
2023/09/02 05:04:26;;;;;;;4.28;1.92;;;;;;;18.34;71.92;101646.47;5093037;28;20116;-58
2023/09/02 05:06:54;;;;;;;2.17;1.85;;;;;;;18.33;71.83;101647.56;5095059;28;20066;-60
2023/09/02 05:09:23;;;;;;;5.40;2.00;;;;;;;18.32;72.00;101654.91;5094605;28;20063;-61
2023/09/02 05:11:51;;;;;;;4.22;2.00;;;;;;;18.32;72.04;101657.63;5094581;28;20115;-59
2023/09/02 05:14:19;;;;;;;4.15;1.85;;;;;;;18.32;72.00;101656.78;5097419;28;20056;-60
2023/09/02 05:16:47;;;;;;;3.22;1.80;;;;;;;18.31;72.15;101652.44;5094771;28;20056;-59
2023/09/02 05:19:14;;;;;;;2.80;1.80;;;;;;;18.30;71.97;101667.09;5095468;28;20463;-57
2023/09/02 05:21:44;;;;;;;1.58;1.45;;;;;;;18.30;71.85;101670.66;5096533;28;20117;-58
2023/09/02 05:24:11;;;;;;;3.33;1.85;;;;;;;18.11;72.00;101647.56;5093157;28;20074;-59
2023/09/02 05:26:41;;;;;;;2.72;2.00;;;;;;;18.29;71.85;101670.91;5091067;28;20139;-59
2023/09/02 05:29:08;;;;;;;5.88;1.70;;;;;;;18.27;71.98;101667.63;5093042;28;20063;-58
2023/09/02 05:31:36;;;;;;;2.72;1.65;;;;;;;18.28;71.74;101672.81;5097519;28;20051;-58
2023/09/02 05:34:04;;;;;;;2.50;1.80;;;;;;;18.28;72.00;101678.25;5094365;28;20048;-58
2023/09/02 05:36:32;;;;;;;2.63;1.80;;;;;;;18.28;72.06;101682.88;5092828;28;20081;-58
2023/09/02 05:39:00;;;;;;;3.70;1.90;;;;;;;18.27;72.01;101690.22;5096165;28;20048;-57
2023/09/02 05:41:28;;;;;;;2.28;1.90;;;;;;;18.28;72.14;101693.75;5096825;28;20145;-58
2023/09/02 05:43:58;;;;;;;5.95;2.17;;;;;;;18.27;71.99;101695.66;5098993;28;20053;-58
2023/09/02 05:46:26;;;;;;;7.57;2.13;;;;;;;18.27;72.19;101705.72;5094391;28;20362;-59
2023/09/02 05:48:54;;;;;;;2.60;1.80;;;;;;;18.27;71.92;101703.00;5094573;28;20113;-58
2023/09/02 05:51:21;;;;;;;2.75;1.92;;;;;;;18.27;72.06;101700.28;5097706;28;20187;-58
2023/09/02 05:53:49;;;;;;;2.75;2.10;;;;;;;18.26;72.06;101702.16;5091204;28;20060;-58
2023/09/02 05:56:17;;;;;;;2.38;1.75;;;;;;;18.26;72.13;101699.44;5096069;28;20416;-59
2023/09/02 05:58:45;;;;;;;2.95;1.80;;;;;;;18.26;72.07;101696.72;5094772;28;20074;-60
2023/09/02 06:01:14;;;;;;;3.70;1.80;;;;;;;18.26;72.06;101698.63;5091413;28;20066;-59
2023/09/02 06:03:42;;;;;;;2.83;1.63;;;;;;;18.27;72.04;101705.72;5091243;28;20055;-59
2023/09/02 06:06:10;;;;;;;3.58;2.00;;;;;;;18.24;72.95;101712.47;5087393;28;20044;-59
2023/09/02 06:08:39;;;;;;;3.58;2.17;;;;;;;18.23;73.38;101710.84;5097201;28;20051;-59
2023/09/02 06:11:07;;;;;;;2.45;1.90;;;;;;;18.24;73.20;101711.66;5093985;28;20428;-59
2023/09/02 06:13:35;;;;;;;2.70;2.10;;;;;;;18.24;72.91;101719.81;5095650;28;20067;-59
2023/09/02 06:16:05;;;;;;;2.60;1.70;;;;;;;18.24;72.78;101723.38;5097343;28;20040;-60
2023/09/02 06:18:35;;;;;;;7.13;1.92;;;;;;;18.25;72.44;101726.91;5098572;28;20051;-58
2023/09/02 06:21:09;;;;;;;4.63;1.80;;;;;;;18.24;72.51;101734.25;5096445;28;20048;-59
2023/09/02 06:23:37;;;;;;;4.00;2.00;;;;;;;18.26;72.40;101734.00;5096468;28;20109;-59
2023/09/02 06:26:05;;;;;;;2.70;2.00;;;;;;;18.27;72.44;101732.94;5088486;28;20090;-60
2023/09/02 06:28:36;;;;;;;3.00;1.92;;;;;;;18.27;72.29;101739.19;5095306;28;20075;-60
2023/09/02 06:31:06;;;;;;;3.15;1.70;;;;;;;18.27;72.19;101746.53;5087786;28;20077;-61
2023/09/02 06:33:35;;;;;;;2.53;1.58;;;;;;;18.28;72.18;101750.91;5095852;28;20048;-60
2023/09/02 06:36:10;;;;;;;2.08;1.50;;;;;;;18.26;72.06;101751.16;5091277;28;20052;-61
2023/09/02 06:38:38;;;;;;;2.25;1.60;;;;;;;18.21;72.06;101742.91;5093453;28;20081;-60
2023/09/02 06:41:10;;;;;;;2.47;1.75;;;;;;;18.26;72.20;101758.50;5090818;28;20409;-60
2023/09/02 06:43:39;;;;;;;13.55;1.70;;;;;;;18.26;71.82;101770.19;5092468;28;20048;-61
2023/09/02 06:46:11;;;;;;;1.80;1.45;;;;;;;18.26;71.93;101769.38;5089104;28;20154;-61
2023/09/02 06:48:40;;;;;;;1.63;1.25;;;;;;;18.14;71.99;101755.88;5093497;28;20079;-60
2023/09/02 06:51:08;;;;;;;3.03;1.52;;;;;;;18.26;71.95;101772.09;5093159;28;20117;-62
2023/09/02 06:53:36;;;;;;;2.95;1.73;;;;;;;18.25;71.84;101776.72;5093494;28;20044;-61
2023/09/02 06:56:07;;;;;;;4.15;1.70;;;;;;;18.25;72.04;101782.16;5094309;28;20117;-60
2023/09/02 06:58:35;;;;;;;2.65;1.75;;;;;;;18.27;71.88;101792.78;5095051;28;20077;-60
2023/09/02 07:01:03;;;;;;;2.65;1.63;;;;;;;18.26;71.87;101797.41;5098179;28;20102;-60
2023/09/02 07:03:30;;;;;;;3.47;1.67;;;;;;;18.26;71.91;101796.59;5099661;28;20286;-60
2023/09/02 07:06:08;;;;;;;4.47;2.08;;;;;;;18.26;72.18;101804.75;5099216;28;20059;-61
2023/09/02 07:08:36;;;;;;;6.10;2.58;;;;;;;18.26;72.07;101811.00;5090862;28;20079;-61
2023/09/02 07:11:05;;;;;;;4.85;2.17;;;;;;;18.27;72.36;101820.00;5094857;28;20052;-60
2023/09/02 07:13:33;;;;;;;3.30;1.67;;;;;;;18.27;72.05;101826.28;5094354;28;20044;-57
2023/09/02 07:16:01;;;;;;;4.85;1.92;;;;;;;18.26;72.22;101830.06;5091253;28;20051;-59
2023/09/02 07:18:29;;;;;;;2.63;1.73;;;;;;;18.28;72.36;101835.25;5094518;28;20415;-59
2023/09/02 07:20:59;;;;;;;4.07;2.65;;;;;;;18.27;73.46;101830.88;5090202;28;20056;-61
2023/09/02 07:23:29;;;;;;;3.50;2.53;;;;;;;18.25;73.70;101833.84;5093065;28;20044;-61
2023/09/02 07:25:59;;;;;;;4.78;1.90;;;;;;;18.27;73.39;101830.88;5093337;28;20082;-59
2023/09/02 07:28:27;;;;;;;3.42;1.80;;;;;;;18.28;72.95;101843.44;5088414;28;20048;-60
2023/09/02 07:30:58;;;;;;;2.65;1.95;;;;;;;18.28;72.98;101836.09;5090750;28;20044;-60
2023/09/02 07:33:26;;;;;;;3.90;1.98;;;;;;;18.27;72.88;101828.16;5089252;28;20040;-60
2023/09/02 07:35:54;;;;;;;8.25;2.17;;;;;;;18.28;73.01;101836.09;5089985;28;20048;-58
2023/09/02 07:38:22;;;;;;;4.88;2.63;;;;;;;18.29;74.07;101832.28;5091644;28;20101;-59
2023/09/02 07:40:51;;;;;;;4.82;2.22;;;;;;;18.30;73.68;101833.13;5095404;28;20537;-61
2023/09/02 07:43:19;;;;;;;8.93;2.92;;;;;;;18.31;73.81;101837.47;5090659;28;20048;-60
2023/09/02 07:45:49;;;;;;;3.85;2.63;;;;;;;18.32;73.64;101844.56;5092820;28;20048;-59
2023/09/02 07:48:17;;;;;;;5.80;2.78;;;;;;;18.21;73.50;101830.00;5089559;28;20139;-60
2023/09/02 07:50:45;;;;;;;13.27;3.25;;;;;;;18.33;73.27;101849.78;5090647;28;20045;-59
2023/09/02 07:53:14;;;;;;;5.32;2.60;;;;;;;18.34;73.70;101856.88;5091497;28;20048;-59
2023/09/02 07:55:43;;;;;;;6.20;2.60;;;;;;;18.35;74.66;101855.78;4740459;28;10000141;-59
2023/09/02 07:58:12;;;;;;;5.07;2.47;;;;;;;18.36;74.50;101864.78;5098029;28;20121;-58
2023/09/02 08:00:40;;;;;;;4.50;2.25;;;;;;;18.37;74.13;101863.69;5099429;28;20048;-59
2023/09/02 08:03:07;;;;;;;6.68;2.47;;;;;;;18.37;73.93;101864.53;5101651;28;20504;-59
2023/09/02 08:05:39;;;;;;;3.75;2.13;;;;;;;18.37;73.82;101867.25;5102809;28;20382;-59
2023/09/02 08:08:07;;;;;;;2.75;1.83;;;;;;;18.38;73.63;101870.78;5100634;28;20055;-58
2023/09/02 08:10:35;;;;;;;2.58;1.73;;;;;;;18.38;73.31;101866.19;5103575;28;20439;-60
2023/09/02 08:13:06;;;;;;;4.03;2.20;;;;;;;18.40;73.44;101868.66;5104905;28;20059;-59
2023/09/02 08:15:37;;;;;;;4.82;2.10;;;;;;;18.40;74.25;101874.91;5099824;28;20086;-59
2023/09/02 08:18:05;;;;;;;2.55;1.92;;;;;;;18.42;73.99;101886.38;5098334;28;20055;-60
2023/09/02 08:20:33;;;;;;;8.85;2.10;;;;;;;18.42;73.60;101880.94;5099875;28;20465;-60
2023/09/02 08:23:01;;;;;;;5.38;2.80;;;;;;;18.43;73.45;101882.59;5101057;28;20137;-60
2023/09/02 08:25:29;;;;;;;2.25;1.70;;;;;;;18.44;73.54;101888.84;5101628;28;20040;-60
2023/09/02 08:27:57;;;;;;;4.10;1.67;;;;;;;18.44;73.49;101884.25;5101481;28;20101;-60
2023/09/02 08:30:24;;;;;;;5.22;2.15;;;;;;;18.45;73.35;101877.72;5096129;28;20160;-60
2023/09/02 08:32:53;;;;;;;3.40;1.80;;;;;;;18.46;73.21;101882.09;5096249;28;20352;-62
2023/09/02 08:35:21;;;;;;;3.42;1.85;;;;;;;18.47;73.06;101882.91;5096801;28;20111;-59
2023/09/02 08:37:51;;;;;;;3.50;1.63;;;;;;;18.50;73.58;101887.84;5096544;28;20075;-58
2023/09/02 08:40:19;;;;;;;2.83;1.50;;;;;;;18.50;73.17;101896.03;5098909;28;20052;-59
2023/09/02 08:42:48;;;;;;;2.78;1.80;;;;;;;18.52;73.12;101891.16;5099003;28;20113;-60
2023/09/02 08:45:22;;;;;;;3.67;1.80;;;;;;;18.53;73.21;101903.69;5098973;28;20134;-59
2023/09/02 08:47:57;;;;;;;4.68;2.00;;;;;;;18.53;72.91;101898.25;5101117;28;20097;-59
2023/09/02 08:50:27;;;;;;;5.70;2.00;;;;;;;18.54;72.97;101895.28;5101530;28;20052;-58
2023/09/02 08:52:56;;;;;;;3.40;1.95;;;;;;;18.57;73.17;101906.75;5096750;28;20043;-58
2023/09/02 08:55:25;;;;;;;3.53;2.20;;;;;;;18.57;73.11;101904.84;5096049;28;20074;-60
2023/09/02 08:57:53;;;;;;;4.75;1.80;;;;;;;18.58;73.10;101894.78;5099956;28;20105;-59
2023/09/02 09:00:22;;;;;;;5.18;2.28;;;;;;;18.58;73.32;101889.34;5098833;28;20048;-59
2023/09/02 09:02:50;;;;;;;4.20;2.90;;;;;;;18.59;73.43;101894.53;5102591;28;20113;-59
2023/09/02 09:05:19;;;;;;;5.13;2.95;;;;;;;18.62;73.72;101893.25;5094914;28;20121;-59
2023/09/02 09:07:48;;;;;;;4.20;2.35;;;;;;;18.59;73.96;101889.09;5095019;28;20078;-59
2023/09/02 09:10:18;;;;;;;7.00;3.35;;;;;;;18.65;73.89;101898.19;5097466;28;20059;-59
2023/09/02 09:12:48;;;;;;;4.85;2.28;;;;;;;18.65;74.04;101904.47;5103794;28;20063;-60
2023/09/02 09:15:18;;;;;;;5.00;2.70;;;;;;;18.68;73.80;101903.13;5099306;28;20089;-59
2023/09/02 09:17:46;;;;;;;3.10;2.05;;;;;;;18.70;73.82;101906.44;5100428;28;20051;-59
2023/09/02 09:20:15;;;;;;;4.07;2.53;;;;;;;18.58;73.69;101900.22;5098103;28;20056;-60
2023/09/02 09:22:45;;;;;;;2.97;2.08;;;;;;;18.71;73.59;101911.63;5099525;28;20052;-59
2023/09/02 09:25:13;;;;;;;3.53;2.33;;;;;;;18.73;73.54;101914.94;5097696;28;20093;-62
2023/09/02 09:27:41;;;;;;;5.38;1.85;;;;;;;18.75;73.47;101917.41;5092909;28;20040;-59
2023/09/02 09:30:27;;;;;;;4.07;2.30;;;;;;;18.67;73.90;101902.31;4741347;28;10000201;-59
2023/09/02 09:32:58;;;;;;;6.40;2.10;;;;;;;18.80;73.69;101926.47;5092346;28;20105;-59
2023/09/02 09:35:26;;;;;;;3.70;2.42;;;;;;;18.82;73.65;101929.75;5094403;28;20048;-59
2023/09/02 09:37:56;;;;;;;5.35;2.95;;;;;;;18.84;73.40;101941.25;5098742;28;20051;-58
2023/09/02 09:40:30;;;;;;;3.83;2.78;;;;;;;18.85;73.56;101942.88;5095096;28;20051;-58
2023/09/02 09:42:58;;;;;;;3.80;2.97;;;;;;;18.88;73.53;101952.47;5094083;28;20051;-59
2023/09/02 09:45:26;;;;;;;3.83;2.50;;;;;;;18.78;73.42;101917.72;5094184;28;20049;-60
2023/09/02 09:47:57;;;;;;;3.72;2.70;;;;;;;18.91;73.39;101940.22;5096408;28;20047;-60
2023/09/02 09:50:28;;;;;;;12.82;5.60;;;;;;;18.91;74.22;101943.78;5095587;28;20135;-60
2023/09/02 09:53:02;;;;;;;6.93;3.08;;;;;;;18.96;74.99;101943.03;5094398;28;20052;-59
2023/09/02 09:55:30;;;;;;;3.53;2.70;;;;;;;18.97;74.61;101947.41;5094700;28;20044;-59
2023/09/02 09:57:59;;;;;;;6.85;2.92;;;;;;;18.87;74.29;101923.56;5095244;28;20044;-60
2023/09/02 10:00:28;;;;;;;6.97;2.78;;;;;;;18.99;74.08;101945.25;5092317;28;20111;-60
2023/09/02 10:02:57;;;;;;;3.88;2.17;;;;;;;19.01;74.05;101945.81;5093643;28;20074;-60
2023/09/02 10:05:26;;;;;;;4.53;2.03;;;;;;;19.01;73.82;101946.66;5098354;28;20066;-60
2023/09/02 10:08:02;;;;;;;2.90;2.45;;;;;;;19.03;73.85;101952.69;5093688;28;20092;-59
2023/09/02 10:10:31;;;;;;;;;;;;;;;19.06;73.81;101956.78;5095336;28;20150;-59
2023/09/02 10:12:59;;;;;;;4.68;2.90;;;;;;;19.07;73.87;101964.69;5095877;28;19984;-60
2023/09/02 10:15:27;;;;;;;4.95;4.05;;;;;;;19.09;74.23;101959.81;5094649;28;20048;-60
2023/09/02 10:17:57;;;;;;;7.38;5.63;;;;;;;19.14;77.18;101967.22;5089979;28;20052;-60
2023/09/02 10:20:29;;;;;;;7.35;4.60;;;;;;;19.14;76.14;101964.50;5094303;28;20064;-59
2023/09/02 10:23:06;;;;;;;6.03;3.92;;;;;;;19.13;75.44;101960.13;5084639;28;20075;-60
2023/09/02 10:25:44;;;;;;;6.32;3.38;;;;;;;19.16;75.32;101957.72;5092315;28;20044;-60
2023/09/02 10:28:16;;;;;;;5.18;4.05;;;;;;;19.16;75.40;101960.47;5094233;28;20048;-58
2023/09/02 10:30:48;;;;;;;8.07;4.40;;;;;;;19.20;75.24;101966.22;5091318;28;20040;-58
2023/09/02 10:33:23;;;;;;;7.18;4.70;;;;;;;19.23;75.56;101964.91;5094609;28;20108;-59
2023/09/02 10:35:59;;;;;;;10.13;4.78;;;;;;;19.23;75.42;101967.63;5089884;28;20114;-58
2023/09/02 10:38:32;;;;;;;12.27;4.75;;;;;;;19.25;75.47;101965.47;5092589;28;20043;-60
2023/09/02 10:41:08;;;;;;;6.63;4.93;;;;;;;19.26;75.69;101967.94;5088974;28;20052;-59
2023/09/02 10:43:37;;;;;;;6.95;4.95;;;;;;;19.26;75.85;101973.41;5090551;28;20068;-59
2023/09/02 10:46:06;;;;;;;7.72;4.15;;;;;;;19.28;75.76;101984.03;5097071;28;20044;-60
2023/09/02 10:48:34;;;;;;;7.78;4.90;;;;;;;19.30;75.86;101979.16;5095943;28;20058;-60
2023/09/02 10:51:04;;;;;;;5.85;4.75;;;;;;;19.30;75.79;101982.72;5096533;28;20181;-60
2023/09/02 10:54:01;;;;;;;5.25;4.57;;;;;;;19.31;75.79;101978.91;5095737;28;22194;-59
2023/09/02 10:56:31;;;;;;;11.68;4.43;;;;;;;19.28;75.75;101976.69;5095880;28;20107;-60
2023/09/02 10:59:00;;;;;;;6.63;3.97;;;;;;;19.35;75.94;101980.06;5095087;28;20043;-60
2023/09/02 11:01:42;;;;;;;6.55;5.00;;;;;;;19.39;76.42;101985.84;5094702;28;20044;-60
2023/09/02 11:04:10;;;;;;;5.38;4.25;;;;;;;19.40;76.02;101988.31;5096187;28;20109;-60
2023/09/02 11:06:38;;;;;;;6.05;4.03;;;;;;;19.42;76.26;101997.06;5095347;28;20090;-59
2023/09/02 11:09:07;;;;;;;6.70;4.00;;;;;;;19.41;76.09;101989.13;5097015;28;20478;-60
2023/09/02 11:12:09;;;;;;;8.25;4.75;;;;;;;19.46;75.93;101981.00;5098426;28;20074;-59
2023/09/02 11:14:36;;;;;;;4.65;3.35;;;;;;;19.49;76.00;101991.41;5033226;28;20049;-60
2023/09/02 11:17:27;;;;;;;8.65;5.90;;;;;;;19.51;76.53;101983.81;5036680;28;20139;-60
2023/09/02 11:19:59;;;;;;;5.57;4.00;;;;;;;19.53;76.20;101983.59;5034159;28;20049;-60
2023/09/02 11:22:50;;;;;;;8.40;4.55;;;;;;;19.56;76.15;101991.25;5034915;28;20099;-59
2023/09/02 11:25:34;;;;;;;7.47;4.25;;;;;;;19.60;76.27;101987.78;5032027;28;20058;-60
2023/09/02 11:28:03;;;;;;;6.68;5.28;;;;;;;19.64;76.55;101988.09;5033232;28;20098;-60
2023/09/02 11:30:33;;;;;;;8.75;5.72;;;;;;;19.67;76.57;101982.94;5030420;28;20483;-60
2023/09/02 11:33:01;;;;;;;6.30;5.10;;;;;;;19.70;76.48;101997.97;5032970;28;20172;-60
2023/09/02 11:35:30;;;;;;;9.52;6.78;;;;;;;19.70;76.61;102000.69;5033312;28;20049;-60